createdAt,value
2022-09-11T05:03:11.832Z,87.80
2022-09-11T05:08:15.516Z,88.30
2022-09-11T05:13:19.281Z,88.50
2022-09-11T05:18:24.319Z,88.30
2022-09-11T05:23:28.081Z,88.20
2022-09-11T05:28:33.104Z,88.10
2022-09-11T05:33:38.558Z,88.00
2022-09-11T05:38:43.019Z,88.10
2022-09-11T05:43:47.337Z,88.20
2022-09-11T05:48:52.564Z,88.40
2022-09-11T05:53:58.152Z,88.30
2022-09-11T05:59:03.452Z,88.30
2022-09-11T06:04:12.420Z,88.50
2022-09-11T06:09:16.835Z,88.70
2022-09-11T06:14:21.543Z,88.80
2022-09-11T06:19:27.805Z,88.90
2022-09-11T06:24:32.163Z,88.90
2022-09-11T06:29:35.874Z,88.80
2022-09-11T06:34:40.924Z,88.60
2022-09-11T06:39:45.475Z,88.50
2022-09-11T06:44:53.887Z,88.30
2022-09-11T06:49:59.247Z,87.80
2022-09-11T06:55:04.447Z,87.70
2022-09-11T07:00:10.046Z,87.50
2022-09-11T07:05:16.677Z,87.20
2022-09-11T07:10:23.874Z,87.00
2022-09-11T07:15:28.035Z,87.00
2022-09-11T07:20:35.725Z,87.10
2022-09-11T07:25:40.664Z,87.00
2022-09-11T07:30:45.043Z,86.90
2022-09-11T07:35:51.372Z,86.90
2022-09-11T07:40:56.631Z,87.30
2022-09-11T07:46:00.494Z,87.10
2022-09-11T07:51:08.353Z,86.90
2022-09-11T07:56:14.836Z,86.30
2022-09-11T08:01:20.291Z,85.90
2022-09-11T08:06:27.115Z,85.40
2022-09-11T08:11:32.415Z,85.00
2022-09-11T08:16:37.008Z,84.70
2022-09-11T08:21:42.505Z,84.10
2022-09-11T08:26:48.932Z,83.60
2022-09-11T08:31:53.386Z,82.90
2022-09-11T08:36:59.486Z,82.30
2022-09-11T08:42:09.474Z,81.70
2022-09-11T08:47:19.498Z,80.90
2022-09-11T08:52:24.883Z,79.60
2022-09-11T08:57:40.369Z,78.00
2022-09-11T09:03:15.501Z,76.50
2022-09-11T09:08:31.645Z,74.80
2022-09-11T09:13:51.900Z,73.60
2022-09-11T09:19:03.324Z,71.90
2022-09-11T09:24:19.385Z,70.20
2022-09-11T09:29:28.782Z,68.80
2022-09-11T09:34:37.627Z,67.50
2022-09-11T09:39:44.718Z,66.10
2022-09-11T09:45:10.632Z,64.80
2022-09-11T09:50:18.141Z,63.40
2022-09-11T09:55:23.583Z,62.60
2022-09-11T10:00:27.604Z,62.70
2022-09-11T10:05:33.319Z,61.80
2022-09-11T10:10:39.926Z,61.00
2022-09-11T10:15:44.066Z,60.20
2022-09-11T10:20:48.258Z,59.10
2022-09-11T10:25:53.702Z,58.20
2022-09-11T10:31:00.254Z,57.80
2022-09-11T10:36:06.151Z,57.00
2022-09-11T10:41:19.260Z,55.80
2022-09-11T10:46:29.777Z,55.20
2022-09-11T10:51:35.289Z,55.10
2022-09-11T10:56:48.339Z,54.90
2022-09-11T11:01:52.366Z,55.00
2022-09-11T11:07:04.456Z,53.70
2022-09-11T11:12:40.061Z,53.00
2022-09-11T11:17:48.438Z,52.10
2022-09-11T11:23:05.888Z,51.90
2022-09-11T11:28:25.275Z,51.40
2022-09-11T11:33:51.290Z,51.00
2022-09-11T11:39:02.086Z,50.10
2022-09-11T11:44:12.910Z,49.50
2022-09-11T11:49:20.526Z,48.80
2022-09-11T11:54:28.835Z,48.50
2022-09-11T11:59:41.527Z,48.40
2022-09-11T12:04:50.740Z,48.20
2022-09-11T12:09:57.413Z,48.20
2022-09-11T12:15:06.718Z,47.70
2022-09-11T12:20:40.804Z,46.90
2022-09-11T12:26:06.111Z,46.00
2022-09-11T12:31:12.480Z,45.70
2022-09-11T12:36:20.016Z,45.50
2022-09-11T12:41:28.855Z,45.90
2022-09-11T12:47:12.659Z,46.00
2022-09-11T12:52:42.947Z,45.80
2022-09-11T12:57:46.659Z,46.30
2022-09-11T13:02:55.499Z,46.60
2022-09-11T13:08:04.252Z,46.30
2022-09-11T13:13:31.309Z,45.90
2022-09-11T13:18:35.507Z,45.20
2022-09-11T13:23:42.447Z,45.10
2022-09-11T13:28:49.297Z,45.40
2022-09-11T13:33:53.821Z,45.20
2022-09-11T13:39:03.043Z,45.40
2022-09-11T13:44:12.761Z,45.30
2022-09-11T13:49:28.799Z,45.30
2022-09-11T13:54:38.376Z,45.30
2022-09-11T13:59:48.249Z,45.10
2022-09-11T14:04:54.090Z,45.30
2022-09-11T14:10:04.241Z,45.70
2022-09-11T14:15:18.713Z,46.20
2022-09-11T14:20:23.179Z,46.00
2022-09-11T14:25:28.065Z,45.50
2022-09-11T14:30:37.529Z,45.30
2022-09-11T14:35:41.648Z,45.40
2022-09-11T14:40:52.917Z,44.70
2022-09-11T14:45:57.773Z,45.60
2022-09-11T14:51:09.896Z,45.90
2022-09-11T14:56:17.709Z,46.00
2022-09-11T15:01:21.320Z,46.40
2022-09-11T15:06:25.489Z,46.90
2022-09-11T15:11:31.206Z,47.40
2022-09-11T15:16:34.781Z,47.90
2022-09-11T15:21:38.631Z,48.40
2022-09-11T15:26:43.770Z,48.80
2022-09-11T15:31:48.053Z,49.00
2022-09-11T15:36:51.584Z,49.20
2022-09-11T15:41:57.351Z,49.50
2022-09-11T15:47:02.072Z,49.60
2022-09-11T15:52:05.856Z,49.80
2022-09-11T15:57:10.805Z,50.00
2022-09-11T16:02:14.675Z,50.00
2022-09-11T16:07:18.323Z,50.30
2022-09-11T16:12:23.900Z,50.50
2022-09-11T16:17:31.278Z,50.50
2022-09-11T16:22:34.851Z,50.50
2022-09-11T16:27:39.946Z,50.60
2022-09-11T16:32:43.842Z,50.70
2022-09-11T16:37:47.407Z,50.80
2022-09-11T16:42:52.327Z,50.80
2022-09-11T16:47:57.137Z,50.80
2022-09-11T16:53:00.686Z,50.90
2022-09-11T16:58:05.701Z,50.80
2022-09-11T17:03:09.285Z,50.80
2022-09-11T17:08:12.780Z,50.90
2022-09-11T17:13:18.201Z,51.00
2022-09-11T17:18:21.746Z,51.10
2022-09-11T17:23:25.429Z,51.20
2022-09-11T17:28:30.274Z,51.20
2022-09-11T17:33:33.761Z,51.30
2022-09-11T17:38:37.899Z,51.30
2022-09-11T17:43:43.616Z,51.40
2022-09-11T17:48:47.780Z,51.40
2022-09-11T17:53:52.775Z,51.50
2022-09-11T17:58:59.690Z,51.70
2022-09-11T18:04:03.664Z,51.80
2022-09-11T18:09:12.019Z,52.00
2022-09-11T18:14:18.283Z,52.10
2022-09-11T18:19:21.848Z,52.40
2022-09-11T18:24:29.804Z,52.50
2022-09-11T18:29:35.218Z,52.60
2022-09-11T18:34:39.320Z,52.70
2022-09-11T18:39:42.913Z,53.00
2022-09-11T18:44:47.781Z,53.10
2022-09-11T18:49:51.482Z,53.20
2022-09-11T18:54:55.010Z,53.40
2022-09-11T19:00:01.418Z,53.70
2022-09-11T19:05:05.341Z,54.20
2022-09-11T19:10:09.635Z,54.70
2022-09-11T19:15:14.489Z,55.10
2022-09-11T19:20:20.739Z,55.50
2022-09-11T19:25:25.378Z,55.80
2022-09-11T19:30:30.775Z,56.30
2022-09-11T19:35:34.625Z,56.60
2022-09-11T19:40:38.153Z,56.70
2022-09-11T19:45:44.024Z,57.10
2022-09-11T19:50:48.143Z,57.50
2022-09-11T19:55:54.488Z,57.80
2022-09-11T20:01:04.397Z,58.10
2022-09-11T20:06:10.261Z,58.40
2022-09-11T20:11:16.969Z,58.60
2022-09-11T20:16:24.499Z,59.20
2022-09-11T20:21:28.118Z,59.60
2022-09-11T20:26:33.626Z,60.00
2022-09-11T20:31:48.679Z,60.30
2022-09-11T20:36:52.450Z,60.70
2022-09-11T20:41:55.979Z,61.00
2022-09-11T20:47:01.040Z,61.40
2022-09-11T20:52:04.772Z,61.70
2022-09-11T20:57:08.352Z,62.10
2022-09-11T21:02:14.818Z,62.40
2022-09-11T21:07:18.456Z,62.90
2022-09-11T21:12:21.964Z,63.30
2022-09-11T21:17:26.853Z,63.60
2022-09-11T21:22:30.346Z,63.90
2022-09-11T21:27:33.924Z,64.30
2022-09-11T21:32:38.861Z,64.50
2022-09-11T21:37:42.415Z,64.80
2022-09-11T21:42:45.969Z,65.10
2022-09-11T21:47:50.940Z,65.30
2022-09-11T21:52:55.585Z,65.60
2022-09-11T21:57:59.444Z,65.80
2022-09-11T22:03:04.613Z,66.20
2022-09-11T22:08:08.745Z,66.40
2022-09-11T22:13:12.634Z,66.60
2022-09-11T22:18:18.959Z,66.80
2022-09-11T22:23:22.881Z,67.00
2022-09-11T22:28:27.065Z,66.80
